createdAt,value
2022-08-03T00:00:29.703Z,1011.87
2022-08-03T00:01:29.708Z,1011.88
2022-08-03T00:02:29.666Z,1011.93
2022-08-03T00:03:29.724Z,1011.92
2022-08-03T00:04:34.133Z,1011.89
2022-08-03T00:05:29.623Z,1011.92
2022-08-03T00:06:33.781Z,1011.91
2022-08-03T00:07:29.606Z,1011.93
2022-08-03T00:08:29.581Z,1011.94
2022-08-03T00:09:29.557Z,1011.93
2022-08-03T00:10:29.557Z,1011.94
2022-08-03T00:11:29.521Z,1011.97
2022-08-03T00:12:29.507Z,1011.95
2022-08-03T00:13:29.491Z,1011.96
2022-08-03T00:14:29.481Z,1011.90
2022-08-03T00:15:29.474Z,1011.88
2022-08-03T00:16:29.445Z,1011.91
2022-08-03T00:17:29.428Z,1011.88
2022-08-03T00:18:29.415Z,1011.89
2022-08-03T00:19:29.390Z,1011.87
2022-08-03T00:20:29.399Z,1011.87
2022-08-03T00:21:29.376Z,1011.88
2022-08-03T00:22:29.346Z,1011.88
2022-08-03T00:23:51.652Z,1011.85
2022-08-03T00:24:29.313Z,1011.85
2022-08-03T00:25:29.312Z,1011.85
2022-08-03T00:26:29.288Z,1011.84
2022-08-03T00:27:29.261Z,1011.85
2022-08-03T00:28:29.249Z,1011.84
2022-08-03T00:29:29.241Z,1011.82
2022-08-03T00:30:30.825Z,1011.83
2022-08-03T00:31:52.133Z,1011.82
2022-08-03T00:32:29.184Z,1011.80
2022-08-03T00:33:29.167Z,1011.81
2022-08-03T00:34:36.408Z,1011.79
2022-08-03T00:35:41.955Z,1011.76
2022-08-03T00:36:29.119Z,1011.77
2022-08-03T00:37:41.417Z,1011.78
2022-08-03T00:38:29.083Z,1011.76
2022-08-03T00:39:29.089Z,1011.78
2022-08-03T00:40:29.055Z,1011.76
2022-08-03T00:41:29.044Z,1011.73
2022-08-03T00:42:29.024Z,1011.75
2022-08-03T00:43:29.034Z,1011.76
2022-08-03T00:44:28.990Z,1011.73
2022-08-03T00:45:28.991Z,1011.76
2022-08-03T00:46:28.957Z,1011.75
2022-08-03T00:47:28.943Z,1011.73
2022-08-03T00:48:33.174Z,1011.69
2022-08-03T00:49:28.983Z,1011.71
2022-08-03T00:50:28.892Z,1011.69
2022-08-03T00:51:28.880Z,1011.68
2022-08-03T00:52:28.862Z,1011.65
2022-08-03T00:53:28.873Z,1011.69
2022-08-03T00:54:28.857Z,1011.65
2022-08-03T00:55:28.816Z,1011.62
2022-08-03T00:56:28.801Z,1011.64
2022-08-03T00:57:28.802Z,1011.65
2022-08-03T00:58:28.770Z,1011.66
2022-08-03T00:59:28.776Z,1011.68
2022-08-03T01:00:28.734Z,1011.65
2022-08-03T01:01:32.175Z,1011.68
2022-08-03T01:02:28.700Z,1011.71
2022-08-03T01:03:28.683Z,1011.70
2022-08-03T01:04:28.696Z,1011.73
2022-08-03T01:05:28.652Z,1011.67
2022-08-03T01:06:28.652Z,1011.68
2022-08-03T01:07:28.625Z,1011.70
2022-08-03T01:08:28.604Z,1011.67
2022-08-03T01:09:28.606Z,1011.70
2022-08-03T01:10:28.591Z,1011.67
2022-08-03T01:11:28.555Z,1011.63
2022-08-03T01:12:28.542Z,1011.65
2022-08-03T01:14:01.047Z,1011.65
2022-08-03T01:14:28.507Z,1011.65
2022-08-03T01:15:28.491Z,1011.63
2022-08-03T01:16:36.744Z,1011.67
2022-08-03T01:17:28.464Z,1011.62
2022-08-03T01:18:28.445Z,1011.63
2022-08-03T01:19:28.434Z,1011.62
2022-08-03T01:20:28.418Z,1011.65
2022-08-03T01:21:28.394Z,1011.60
2022-08-03T01:22:28.403Z,1011.64
2022-08-03T01:23:28.943Z,1011.60
2022-08-03T01:24:28.350Z,1011.61
2022-08-03T01:25:28.331Z,1011.61
2022-08-03T01:26:28.316Z,1011.65
2022-08-03T01:27:28.319Z,1011.62
2022-08-03T01:28:28.286Z,1011.64
2022-08-03T01:29:28.275Z,1011.68
2022-08-03T01:30:28.257Z,1011.66
2022-08-03T01:31:28.234Z,1011.69
2022-08-03T01:32:58.715Z,1011.70
2022-08-03T01:33:28.209Z,1011.72
2022-08-03T01:34:28.189Z,1011.68
2022-08-03T01:35:28.186Z,1011.68
2022-08-03T01:36:28.156Z,1011.69
2022-08-03T01:37:28.136Z,1011.69
2022-08-03T01:38:28.140Z,1011.61
2022-08-03T01:39:28.103Z,1011.66
2022-08-03T01:40:28.094Z,1011.65
2022-08-03T01:41:28.083Z,1011.65
2022-08-03T01:42:28.061Z,1011.65
2022-08-03T01:43:55.322Z,1011.65
2022-08-03T01:44:30.937Z,1011.68
2022-08-03T01:45:28.009Z,1011.68
2022-08-03T01:46:27.987Z,1011.68
2022-08-03T01:47:27.984Z,1011.64
2022-08-03T01:48:27.958Z,1011.64
2022-08-03T01:49:28.051Z,1011.62
2022-08-03T01:50:27.941Z,1011.64
2022-08-03T01:51:58.496Z,1011.63
2022-08-03T01:52:27.892Z,1011.62
2022-08-03T01:53:27.897Z,1011.61
2022-08-03T01:54:27.878Z,1011.60
2022-08-03T01:55:27.843Z,1011.63
2022-08-03T01:56:27.824Z,1011.60
2022-08-03T01:57:27.810Z,1011.61
2022-08-03T01:58:27.796Z,1011.66
2022-08-03T01:59:27.779Z,1011.65
2022-08-03T02:00:27.777Z,1011.67
2022-08-03T02:01:27.794Z,1011.59
2022-08-03T02:02:32.599Z,1011.62
2022-08-03T02:03:27.715Z,1011.65
2022-08-03T02:04:27.696Z,1011.61
2022-08-03T02:05:27.703Z,1011.62
2022-08-03T02:07:00.195Z,1011.64
2022-08-03T02:07:27.651Z,1011.63
2022-08-03T02:08:27.629Z,1011.62
2022-08-03T02:09:27.610Z,1011.62
2022-08-03T02:10:35.319Z,1011.61
2022-08-03T02:11:27.581Z,1011.59
2022-08-03T02:12:27.564Z,1011.60
2022-08-03T02:13:27.559Z,1011.57
2022-08-03T02:14:27.530Z,1011.52
2022-08-03T02:15:27.540Z,1011.52
2022-08-03T02:16:27.501Z,1011.54
2022-08-03T02:17:39.466Z,1011.51
2022-08-03T02:18:27.463Z,1011.53
2022-08-03T02:19:29.445Z,1011.52
2022-08-03T02:20:27.429Z,1011.51
2022-08-03T02:21:57.493Z,1011.55
2022-08-03T02:22:27.420Z,1011.52
2022-08-03T02:23:27.382Z,1011.57
2022-08-03T02:24:27.361Z,1011.55
2022-08-03T02:25:27.345Z,1011.51
2022-08-03T02:26:27.332Z,1011.52
2022-08-03T02:27:27.350Z,1011.51
2022-08-03T02:28:27.296Z,1011.54
2022-08-03T02:29:39.103Z,1011.50
2022-08-03T02:30:27.268Z,1011.48
2022-08-03T02:31:27.258Z,1011.50
2022-08-03T02:32:27.256Z,1011.45
2022-08-03T02:33:27.211Z,1011.48
2022-08-03T02:34:27.201Z,1011.46
2022-08-03T02:35:27.201Z,1011.49
2022-08-03T02:36:27.169Z,1011.46
2022-08-03T02:37:27.157Z,1011.46
2022-08-03T02:38:27.127Z,1011.42
2022-08-03T02:39:27.116Z,1011.48
2022-08-03T02:40:27.135Z,1011.45
2022-08-03T02:41:27.102Z,1011.44
2022-08-03T02:42:27.071Z,1011.47
2022-08-03T02:43:27.050Z,1011.44
2022-08-03T02:44:27.034Z,1011.47
2022-08-03T02:45:27.013Z,1011.48
2022-08-03T02:46:27.002Z,1011.49
2022-08-03T02:47:27.014Z,1011.44
2022-08-03T02:48:26.968Z,1011.51
2022-08-03T02:49:51.075Z,1011.48
2022-08-03T02:50:26.955Z,1011.46
2022-08-03T02:51:26.912Z,1011.49
2022-08-03T02:52:26.909Z,1011.48
2022-08-03T02:53:26.898Z,1011.51
2022-08-03T02:54:26.890Z,1011.49
2022-08-03T02:55:26.846Z,1011.49
2022-08-03T02:56:26.834Z,1011.45
2022-08-03T02:57:26.813Z,1011.46
2022-08-03T02:58:26.811Z,1011.48
2022-08-03T02:59:26.790Z,1011.51
2022-08-03T03:00:27.958Z,1011.51
2022-08-03T03:01:26.817Z,1011.52
2022-08-03T03:02:26.740Z,1011.52
2022-08-03T03:03:28.951Z,1011.54
2022-08-03T03:04:30.696Z,1011.53
2022-08-03T03:05:52.355Z,1011.51
2022-08-03T03:06:26.665Z,1011.54
2022-08-03T03:07:26.650Z,1011.50
2022-08-03T03:08:28.142Z,1011.51
2022-08-03T03:09:26.620Z,1011.49
2022-08-03T03:10:26.622Z,1011.48
2022-08-03T03:11:26.592Z,1011.47
2022-08-03T03:12:26.572Z,1011.48
2022-08-03T03:13:26.553Z,1011.45
2022-08-03T03:14:33.506Z,1011.47
2022-08-03T03:15:26.545Z,1011.46
2022-08-03T03:16:26.503Z,1011.47
2022-08-03T03:17:26.491Z,1011.50
2022-08-03T03:18:26.470Z,1011.49
2022-08-03T03:19:26.451Z,1011.46
2022-08-03T03:20:30.059Z,1011.50
2022-08-03T03:21:26.426Z,1011.48
2022-08-03T03:22:26.405Z,1011.48
2022-08-03T03:23:26.382Z,1011.52
2022-08-03T03:24:26.373Z,1011.50
2022-08-03T03:25:26.366Z,1011.49
2022-08-03T03:26:26.358Z,1011.48
2022-08-03T03:27:26.317Z,1011.49
2022-08-03T03:28:26.299Z,1011.50
2022-08-03T03:29:26.279Z,1011.52
2022-08-03T03:30:26.265Z,1011.51
2022-08-03T03:31:26.266Z,1011.52
2022-08-03T03:32:26.257Z,1011.52
2022-08-03T03:33:28.390Z,1011.51
2022-08-03T03:34:26.195Z,1011.48
2022-08-03T03:35:26.181Z,1011.51
2022-08-03T03:36:26.165Z,1011.54
2022-08-03T03:37:26.169Z,1011.48
2022-08-03T03:38:26.131Z,1011.52
2022-08-03T03:39:26.115Z,1011.51
2022-08-03T03:40:26.105Z,1011.47
2022-08-03T03:41:26.083Z,1011.50
2022-08-03T03:42:26.082Z,1011.54
2022-08-03T03:43:26.046Z,1011.50
2022-08-03T03:44:26.043Z,1011.51
2022-08-03T03:45:26.014Z,1011.51
2022-08-03T03:46:25.998Z,1011.48
2022-08-03T03:47:32.467Z,1011.51
2022-08-03T03:48:25.969Z,1011.49
2022-08-03T03:49:25.997Z,1011.48
2022-08-03T03:50:25.930Z,1011.46
2022-08-03T03:51:25.918Z,1011.50
2022-08-03T03:52:25.896Z,1011.50
2022-08-03T03:53:25.915Z,1011.49
2022-08-03T03:54:29.111Z,1011.46
2022-08-03T03:55:25.866Z,1011.53
2022-08-03T03:56:25.836Z,1011.52
2022-08-03T03:57:25.808Z,1011.49
2022-08-03T03:58:25.805Z,1011.51
2022-08-03T03:59:25.777Z,1011.51
2022-08-03T04:00:25.803Z,1011.54
2022-08-03T04:01:25.894Z,1011.53
2022-08-03T04:02:25.728Z,1011.56
2022-08-03T04:03:25.709Z,1011.55
2022-08-03T04:04:25.704Z,1011.54
2022-08-03T04:05:25.693Z,1011.56
2022-08-03T04:06:25.682Z,1011.53
2022-08-03T04:07:25.644Z,1011.57
2022-08-03T04:08:25.637Z,1011.60
2022-08-03T04:09:25.611Z,1011.61
2022-08-03T04:10:25.591Z,1011.60
2022-08-03T04:11:29.316Z,1011.59
2022-08-03T04:12:25.585Z,1011.61
2022-08-03T04:13:25.542Z,1011.59
2022-08-03T04:14:25.524Z,1011.55
2022-08-03T04:15:25.511Z,1011.57
2022-08-03T04:16:25.491Z,1011.54
2022-08-03T04:17:25.485Z,1011.55
2022-08-03T04:18:25.481Z,1011.55
2022-08-03T04:19:25.442Z,1011.56
2022-08-03T04:20:25.440Z,1011.58
2022-08-03T04:21:25.418Z,1011.56
2022-08-03T04:22:25.397Z,1011.60
2022-08-03T04:23:25.397Z,1011.61
2022-08-03T04:24:26.448Z,1011.59
2022-08-03T04:25:25.349Z,1011.57
2022-08-03T04:26:25.325Z,1011.59
2022-08-03T04:27:25.330Z,1011.57
2022-08-03T04:28:30.579Z,1011.57
2022-08-03T04:29:25.277Z,1011.57
2022-08-03T04:30:25.258Z,1011.57
2022-08-03T04:31:25.245Z,1011.58
2022-08-03T04:32:25.255Z,1011.56
2022-08-03T04:33:25.209Z,1011.59
2022-08-03T04:34:25.193Z,1011.58
2022-08-03T04:35:25.176Z,1011.58
2022-08-03T04:36:25.161Z,1011.54
2022-08-03T04:37:25.142Z,1011.57
2022-08-03T04:38:25.162Z,1011.59
2022-08-03T04:39:25.107Z,1011.59
2022-08-03T04:40:25.090Z,1011.61
2022-08-03T04:41:25.072Z,1011.57
2022-08-03T04:42:25.118Z,1011.58
2022-08-03T04:43:25.040Z,1011.58
2022-08-03T04:44:28.427Z,1011.57
2022-08-03T04:45:25.006Z,1011.60
2022-08-03T04:46:24.996Z,1011.61
2022-08-03T04:47:24.981Z,1011.63
2022-08-03T04:48:24.970Z,1011.61
2022-08-03T04:49:24.990Z,1011.62
2022-08-03T04:50:24.943Z,1011.63
2022-08-03T04:51:24.923Z,1011.63
2022-08-03T04:52:24.895Z,1011.62
2022-08-03T04:53:24.875Z,1011.67
2022-08-03T04:54:24.866Z,1011.69
2022-08-03T04:55:24.864Z,1011.68
2022-08-03T04:56:24.832Z,1011.69
2022-08-03T04:57:24.817Z,1011.71
2022-08-03T04:58:24.799Z,1011.68
2022-08-03T04:59:24.778Z,1011.68
2022-08-03T05:00:24.773Z,1011.70
2022-08-03T05:01:24.801Z,1011.68
2022-08-03T05:02:24.730Z,1011.70
2022-08-03T05:03:25.137Z,1011.71
2022-08-03T05:04:24.704Z,1011.73
2022-08-03T05:05:24.705Z,1011.74
2022-08-03T05:06:25.025Z,1011.74
2022-08-03T05:07:25.168Z,1011.74
2022-08-03T05:08:28.075Z,1011.74
2022-08-03T05:09:45.778Z,1011.75
2022-08-03T05:10:24.600Z,1011.73
2022-08-03T05:11:24.611Z,1011.79
2022-08-03T05:12:26.486Z,1011.77
2022-08-03T05:13:24.556Z,1011.77
2022-08-03T05:14:28.102Z,1011.74
2022-08-03T05:15:24.519Z,1011.74
2022-08-03T05:16:24.517Z,1011.75
2022-08-03T05:17:24.499Z,1011.77
2022-08-03T05:18:24.474Z,1011.79
2022-08-03T05:19:24.452Z,1011.78
2022-08-03T05:20:24.433Z,1011.78
2022-08-03T05:21:24.436Z,1011.78
2022-08-03T05:22:24.407Z,1011.77
2022-08-03T05:23:24.405Z,1011.78
2022-08-03T05:24:24.395Z,1011.78
2022-08-03T05:25:27.303Z,1011.80
2022-08-03T05:26:24.347Z,1011.79
2022-08-03T05:27:24.323Z,1011.79
2022-08-03T05:28:24.307Z,1011.78
2022-08-03T05:29:24.293Z,1011.81
2022-08-03T05:30:32.309Z,1011.84
2022-08-03T05:31:24.281Z,1011.80
2022-08-03T05:32:24.262Z,1011.79
2022-08-03T05:33:24.237Z,1011.80
2022-08-03T05:34:24.209Z,1011.79
2022-08-03T05:43:15.307Z,1011.77
2022-08-03T05:44:14.816Z,1011.78
2022-08-03T05:45:14.838Z,1011.76
2022-08-03T05:46:14.775Z,1011.76
2022-08-03T05:47:14.762Z,1011.75
2022-08-03T05:48:14.764Z,1011.75
2022-08-03T05:49:14.783Z,1011.75
2022-08-03T05:50:14.714Z,1011.79
2022-08-03T05:51:14.708Z,1011.83
2022-08-03T05:52:14.752Z,1011.82
2022-08-03T05:53:22.716Z,1011.82
2022-08-03T05:54:18.219Z,1011.82
2022-08-03T05:55:14.639Z,1011.82
2022-08-03T05:56:16.382Z,1011.84
2022-08-03T05:57:14.604Z,1011.81
2022-08-03T05:58:14.588Z,1011.81
2022-08-03T05:59:36.927Z,1011.79
2022-08-03T06:00:14.556Z,1011.79
2022-08-03T06:01:14.618Z,1011.78
2022-08-03T06:02:14.759Z,1011.78
2022-08-03T06:03:14.509Z,1011.78
2022-08-03T06:04:14.499Z,1011.76
2022-08-03T06:05:14.478Z,1011.76
2022-08-03T06:06:14.475Z,1011.75
2022-08-03T06:07:14.448Z,1011.77
2022-08-03T06:08:15.439Z,1011.77
2022-08-03T06:09:14.409Z,1011.78
2022-08-03T06:10:37.278Z,1011.75
2022-08-03T06:11:14.389Z,1011.78
2022-08-03T06:12:14.472Z,1011.77
2022-08-03T06:13:14.349Z,1011.79
2022-08-03T06:14:14.336Z,1011.81
2022-08-03T06:15:14.315Z,1011.81
2022-08-03T06:16:14.300Z,1011.81
2022-08-03T06:17:14.287Z,1011.82
2022-08-03T06:18:14.285Z,1011.82
2022-08-03T06:19:14.270Z,1011.85
2022-08-03T06:20:14.252Z,1011.88
2022-08-03T06:21:16.173Z,1011.87
2022-08-03T06:22:14.379Z,1011.88
2022-08-03T06:23:16.232Z,1011.88
2022-08-03T06:24:14.176Z,1011.88
2022-08-03T06:25:14.280Z,1011.84
2022-08-03T06:26:14.149Z,1011.89
2022-08-03T06:27:14.152Z,1011.86
2022-08-03T06:28:35.205Z,1011.86
2022-08-03T06:29:14.119Z,1011.91
2022-08-03T06:30:18.088Z,1011.89
2022-08-03T06:31:14.090Z,1011.90
2022-08-03T06:32:14.402Z,1011.88
2022-08-03T06:33:14.043Z,1011.91
2022-08-03T06:34:32.155Z,1011.93
2022-08-03T06:35:14.020Z,1011.92
2022-08-03T06:36:13.988Z,1011.95
2022-08-03T06:37:13.970Z,1011.94
2022-08-03T06:38:13.959Z,1011.92
2022-08-03T06:39:13.964Z,1011.93
2022-08-03T06:40:14.131Z,1011.93
2022-08-03T06:41:13.911Z,1011.94
2022-08-03T06:42:13.989Z,1011.96
2022-08-03T06:43:13.886Z,1011.93
2022-08-03T06:44:13.905Z,1011.95
2022-08-03T06:45:13.850Z,1011.97
2022-08-03T06:46:13.832Z,1011.95
2022-08-03T06:47:13.828Z,1011.96
2022-08-03T06:48:13.821Z,1011.98
2022-08-03T06:49:13.860Z,1011.96
2022-08-03T06:50:16.185Z,1011.97
2022-08-03T06:51:13.757Z,1011.97
2022-08-03T06:52:13.751Z,1011.96
2022-08-03T06:53:18.216Z,1011.97
2022-08-03T06:54:13.725Z,1011.97
2022-08-03T06:55:13.700Z,1011.97
2022-08-03T06:56:13.702Z,1011.97
2022-08-03T06:57:13.682Z,1011.97
2022-08-03T06:58:13.649Z,1011.97
2022-08-03T07:00:09.957Z,1012.01
2022-08-03T07:00:13.623Z,1012.01
2022-08-03T07:01:13.655Z,1012.00
2022-08-03T07:02:19.116Z,1012.01
2022-08-03T07:03:13.573Z,1012.05
2022-08-03T07:04:13.557Z,1012.02
2022-08-03T07:05:13.547Z,1012.04
2022-08-03T07:06:13.535Z,1012.03
2022-08-03T07:07:13.533Z,1012.00
2022-08-03T07:08:13.507Z,1011.98
2022-08-03T07:09:13.488Z,1012.00
2022-08-03T07:10:13.470Z,1012.00
2022-08-03T07:11:13.457Z,1012.01
2022-08-03T07:12:13.455Z,1012.00
2022-08-03T07:13:13.421Z,1012.01
2022-08-03T07:14:13.408Z,1012.01
2022-08-03T07:15:20.364Z,1012.02
2022-08-03T07:16:13.400Z,1012.07
2022-08-03T07:17:13.360Z,1012.08
2022-08-03T07:18:13.362Z,1012.09
2022-08-03T07:19:13.341Z,1012.06
2022-08-03T07:20:13.317Z,1012.09
2022-08-03T07:21:13.306Z,1012.10
2022-08-03T07:22:13.311Z,1012.10
2022-08-03T07:23:18.944Z,1012.09
2022-08-03T07:24:13.258Z,1012.09
2022-08-03T07:25:13.247Z,1012.10
2022-08-03T07:26:13.228Z,1012.08
2022-08-03T07:27:13.212Z,1012.13
2022-08-03T07:28:13.214Z,1012.08
2022-08-03T07:29:15.372Z,1012.10
2022-08-03T07:30:13.187Z,1012.09
2022-08-03T07:31:13.149Z,1012.07
2022-08-03T07:32:13.158Z,1012.09
2022-08-03T07:33:13.121Z,1012.07
2022-08-03T07:34:13.140Z,1012.12
2022-08-03T07:35:22.725Z,1012.11
2022-08-03T07:36:13.075Z,1012.12
2022-08-03T07:37:13.060Z,1012.12
2022-08-03T07:38:13.126Z,1012.18
2022-08-03T07:39:17.498Z,1012.16
2022-08-03T07:40:13.021Z,1012.14
2022-08-03T07:41:13.019Z,1012.17
2022-08-03T07:42:12.994Z,1012.18
2022-08-03T07:43:12.972Z,1012.13
2022-08-03T07:44:12.973Z,1012.16
2022-08-03T07:45:16.790Z,1012.14
2022-08-03T07:46:12.934Z,1012.13
2022-08-03T07:47:22.413Z,1012.13
2022-08-03T07:48:12.931Z,1012.09
2022-08-03T07:49:12.963Z,1012.09
2022-08-03T07:50:12.872Z,1012.11
2022-08-03T07:51:12.927Z,1012.09
2022-08-03T07:52:12.843Z,1012.13
2022-08-03T07:53:12.837Z,1012.10
2022-08-03T07:54:12.834Z,1012.11
2022-08-03T07:55:12.800Z,1012.10
2022-08-03T07:56:12.804Z,1012.06
2022-08-03T07:57:12.785Z,1012.07
2022-08-03T07:58:12.821Z,1012.11
2022-08-03T07:59:12.755Z,1012.10
2022-08-03T08:00:12.727Z,1012.05
2022-08-03T08:01:15.032Z,1012.03
2022-08-03T08:02:12.696Z,1012.07
2022-08-03T08:03:12.682Z,1012.03
2022-08-03T08:04:12.669Z,1012.02
2022-08-03T08:05:12.713Z,1012.02
2022-08-03T08:06:12.656Z,1012.04
2022-08-03T08:07:12.625Z,1012.05
2022-08-03T08:08:12.629Z,1012.04
2022-08-03T08:09:12.596Z,1012.00
2022-08-03T08:10:12.589Z,1012.00
2022-08-03T08:11:12.587Z,1011.99
2022-08-03T08:12:15.044Z,1012.01
2022-08-03T08:13:12.541Z,1012.00
2022-08-03T08:14:12.528Z,1011.99
2022-08-03T08:15:12.514Z,1012.00
2022-08-03T08:16:12.515Z,1012.01
2022-08-03T08:17:12.482Z,1011.99
2022-08-03T08:18:12.487Z,1012.03
2022-08-03T08:19:12.820Z,1012.02
2022-08-03T08:20:12.445Z,1011.95
2022-08-03T08:21:12.457Z,1011.98
2022-08-03T08:22:12.431Z,1011.98
2022-08-03T08:23:41.572Z,1011.99
2022-08-03T08:24:15.245Z,1011.97
2022-08-03T08:25:12.372Z,1012.01
2022-08-03T08:26:12.362Z,1012.00
2022-08-03T08:27:12.367Z,1011.99
2022-08-03T08:28:29.831Z,1011.98
2022-08-03T08:29:12.339Z,1012.00
2022-08-03T08:30:15.978Z,1012.00
2022-08-03T08:31:12.293Z,1012.00
2022-08-03T08:32:12.357Z,1011.98
2022-08-03T08:33:22.351Z,1011.99
2022-08-03T08:34:12.254Z,1011.99
2022-08-03T08:35:12.242Z,1011.95
2022-08-03T08:36:15.338Z,1012.00
2022-08-03T08:37:12.218Z,1012.04
2022-08-03T08:38:12.199Z,1011.99
2022-08-03T08:39:12.205Z,1012.00
2022-08-03T08:40:12.171Z,1011.98
2022-08-03T08:41:12.167Z,1012.00
2022-08-03T08:42:12.190Z,1011.98
2022-08-03T08:43:12.134Z,1012.03
2022-08-03T08:44:12.118Z,1011.99
2022-08-03T08:45:12.135Z,1012.02
2022-08-03T08:46:23.259Z,1011.97
2022-08-03T08:47:12.081Z,1011.98
2022-08-03T08:48:12.067Z,1011.98
2022-08-03T08:49:12.095Z,1011.96
2022-08-03T08:50:27.322Z,1011.98
2022-08-03T08:51:12.048Z,1011.98
2022-08-03T08:52:25.249Z,1012.01
2022-08-03T08:53:18.368Z,1011.98
2022-08-03T08:54:11.986Z,1011.99
2022-08-03T08:55:11.971Z,1012.01
2022-08-03T08:56:12.078Z,1011.98
2022-08-03T08:57:26.877Z,1011.98
2022-08-03T08:58:11.939Z,1012.06
2022-08-03T08:59:11.930Z,1012.00
2022-08-03T09:00:11.911Z,1011.99
2022-08-03T09:01:11.925Z,1011.97
2022-08-03T09:02:11.952Z,1012.01
2022-08-03T09:03:11.873Z,1011.99
2022-08-03T09:04:11.889Z,1011.96
2022-08-03T09:05:11.855Z,1012.01
2022-08-03T09:06:11.833Z,1011.94
2022-08-03T09:07:20.158Z,1011.93
2022-08-03T09:08:11.823Z,1011.94
2022-08-03T09:09:11.796Z,1011.93
2022-08-03T09:10:13.666Z,1011.90
2022-08-03T09:11:12.152Z,1011.94
2022-08-03T09:12:37.473Z,1011.91
2022-08-03T09:13:11.777Z,1012.00
2022-08-03T09:14:39.198Z,1011.99
2022-08-03T09:15:16.972Z,1011.97
2022-08-03T09:16:11.704Z,1012.00
2022-08-03T09:17:17.221Z,1011.96
2022-08-03T09:18:11.703Z,1012.01
2022-08-03T09:19:11.675Z,1011.99
2022-08-03T09:20:11.657Z,1012.04
2022-08-03T09:21:30.009Z,1012.03
2022-08-03T09:22:11.659Z,1012.07
2022-08-03T09:23:51.592Z,1012.05
2022-08-03T09:24:25.723Z,1012.10
2022-08-03T09:25:26.368Z,1012.08
2022-08-03T09:26:11.586Z,1012.10
2022-08-03T09:27:11.623Z,1012.07
2022-08-03T09:28:11.589Z,1012.06
2022-08-03T09:29:14.959Z,1012.05
2022-08-03T09:30:33.390Z,1012.07
2022-08-03T09:31:11.545Z,1012.04
2022-08-03T09:32:11.523Z,1012.05
2022-08-03T09:33:12.300Z,1012.07
2022-08-03T09:34:11.516Z,1012.07
2022-08-03T09:35:11.492Z,1012.07
2022-08-03T09:36:11.531Z,1012.05
2022-08-03T09:37:11.473Z,1012.04
2022-08-03T09:38:13.528Z,1012.08
2022-08-03T09:39:11.443Z,1012.11
2022-08-03T09:40:11.441Z,1012.12
2022-08-03T09:41:11.416Z,1012.11
2022-08-03T09:42:11.416Z,1012.11
2022-08-03T09:43:11.398Z,1012.06
2022-08-03T09:44:24.536Z,1012.06
2022-08-03T09:45:11.390Z,1012.12
2022-08-03T09:46:11.366Z,1012.15
2022-08-03T09:47:11.358Z,1012.06
2022-08-03T09:48:11.344Z,1012.05
2022-08-03T09:49:11.722Z,1012.09
2022-08-03T09:50:11.367Z,1012.11
2022-08-03T09:51:13.574Z,1012.13
2022-08-03T09:52:38.495Z,1012.10
2022-08-03T09:53:11.296Z,1012.13
2022-08-03T09:54:18.858Z,1012.09
2022-08-03T09:56:04.996Z,1012.03
2022-08-03T09:56:35.988Z,1012.07
2022-08-03T09:57:11.286Z,1012.07
2022-08-03T09:58:11.260Z,1012.08
2022-08-03T09:59:11.246Z,1012.06
2022-08-03T10:00:11.245Z,1012.06
2022-08-03T10:01:23.880Z,1011.99
2022-08-03T10:02:11.231Z,1012.08
2022-08-03T10:03:11.236Z,1012.07
2022-08-03T10:04:11.231Z,1012.08
2022-08-03T10:05:11.208Z,1012.08
2022-08-03T10:06:11.221Z,1012.09
2022-08-03T10:07:11.196Z,1012.09
2022-08-03T10:08:11.192Z,1012.09
2022-08-03T10:09:11.180Z,1012.06
2022-08-03T10:10:31.080Z,1012.07
2022-08-03T10:11:11.192Z,1012.08
2022-08-03T10:12:11.186Z,1012.07
2022-08-03T10:13:11.162Z,1011.98
2022-08-03T10:14:11.153Z,1012.05
2022-08-03T10:16:23.179Z,1012.03
2022-08-03T10:16:23.955Z,1012.01
2022-08-03T10:17:11.141Z,1011.96
2022-08-03T10:18:11.145Z,1012.00
2022-08-03T10:19:11.134Z,1012.03
2022-08-03T10:20:11.258Z,1012.00
2022-08-03T10:21:11.119Z,1011.99
2022-08-03T10:22:11.135Z,1012.03
2022-08-03T10:23:11.103Z,1011.99
2022-08-03T10:24:11.113Z,1012.02
2022-08-03T10:25:11.198Z,1012.00
2022-08-03T10:26:11.135Z,1011.96
2022-08-03T10:27:11.141Z,1011.98
2022-08-03T10:28:11.128Z,1011.89
2022-08-03T10:29:12.900Z,1011.89
2022-08-03T10:30:11.083Z,1011.88
2022-08-03T10:31:11.061Z,1011.96
2022-08-03T10:32:11.047Z,1011.91
2022-08-03T10:33:50.099Z,1011.90
2022-08-03T10:34:11.063Z,1011.91
2022-08-03T10:35:18.988Z,1011.85
2022-08-03T10:36:11.026Z,1011.87
2022-08-03T10:37:11.023Z,1011.86
2022-08-03T10:38:11.016Z,1011.87
2022-08-03T10:39:15.975Z,1011.89
2022-08-03T10:40:16.173Z,1011.82
2022-08-03T10:41:11.002Z,1011.78
2022-08-03T10:42:14.585Z,1011.81
2022-08-03T10:43:10.989Z,1011.79
2022-08-03T10:44:10.983Z,1011.80
2022-08-03T10:45:10.995Z,1011.76
2022-08-03T10:46:10.994Z,1011.75
2022-08-03T10:47:10.985Z,1011.74
2022-08-03T10:48:10.963Z,1011.74
2022-08-03T10:49:11.044Z,1011.73
2022-08-03T10:50:10.981Z,1011.65
2022-08-03T10:51:10.961Z,1011.66
2022-08-03T10:52:31.993Z,1011.65
2022-08-03T10:53:10.933Z,1011.67
2022-08-03T10:54:10.928Z,1011.70
2022-08-03T10:55:11.123Z,1011.67
2022-08-03T10:56:10.918Z,1011.66
2022-08-03T10:57:14.360Z,1011.65
2022-08-03T10:58:11.392Z,1011.68
2022-08-03T10:59:10.895Z,1011.68
2022-08-03T11:00:10.895Z,1011.64
2022-08-03T11:01:10.917Z,1011.61
2022-08-03T11:02:10.909Z,1011.63
2022-08-03T11:03:10.876Z,1011.60
2022-08-03T11:04:15.243Z,1011.57
2022-08-03T11:05:10.903Z,1011.52
2022-08-03T11:06:10.861Z,1011.53
2022-08-03T11:07:10.876Z,1011.59
2022-08-03T11:08:10.852Z,1011.54
2022-08-03T11:09:10.847Z,1011.59
2022-08-03T11:10:10.981Z,1011.56
2022-08-03T11:11:10.848Z,1011.57
2022-08-03T11:12:10.830Z,1011.58
2022-08-03T11:13:10.842Z,1011.56
2022-08-03T11:14:10.815Z,1011.55
2022-08-03T11:15:10.859Z,1011.57
2022-08-03T11:16:16.119Z,1011.53
2022-08-03T11:17:15.160Z,1011.58
2022-08-03T11:18:11.239Z,1011.58
2022-08-03T11:19:10.845Z,1011.58
2022-08-03T11:20:10.804Z,1011.59
2022-08-03T11:21:10.795Z,1011.54
2022-08-03T11:22:10.776Z,1011.54
2022-08-03T11:23:10.791Z,1011.55
2022-08-03T11:24:10.775Z,1011.51
2022-08-03T11:25:53.941Z,1011.54
2022-08-03T11:26:10.759Z,1011.52
2022-08-03T11:27:10.751Z,1011.50
2022-08-03T11:28:10.761Z,1011.49
2022-08-03T11:29:10.763Z,1011.48
2022-08-03T11:30:10.749Z,1011.48
2022-08-03T11:31:22.373Z,1011.49
2022-08-03T11:32:10.721Z,1011.47
2022-08-03T11:33:10.717Z,1011.46
2022-08-03T11:34:10.741Z,1011.46
2022-08-03T11:35:10.708Z,1011.45
2022-08-03T11:36:10.698Z,1011.46
2022-08-03T11:37:10.710Z,1011.51
2022-08-03T11:38:10.688Z,1011.47
2022-08-03T11:39:10.690Z,1011.52
2022-08-03T11:40:10.698Z,1011.50
2022-08-03T11:41:10.676Z,1011.60
2022-08-03T11:42:10.675Z,1011.56
2022-08-03T11:43:10.684Z,1011.52
2022-08-03T11:44:10.658Z,1011.54
2022-08-03T11:45:10.667Z,1011.50
2022-08-03T11:46:10.671Z,1011.50
2022-08-03T11:47:10.653Z,1011.48
2022-08-03T11:48:10.643Z,1011.45
2022-08-03T11:49:11.352Z,1011.49
2022-08-03T11:50:10.637Z,1011.49
2022-08-03T11:51:10.654Z,1011.56
2022-08-03T11:52:10.628Z,1011.51
2022-08-03T11:53:10.639Z,1011.50
2022-08-03T11:54:10.610Z,1011.55
2022-08-03T11:55:10.611Z,1011.59
2022-08-03T11:56:13.042Z,1011.59
2022-08-03T11:57:10.614Z,1011.56
2022-08-03T11:59:01.553Z,1011.59
2022-08-03T11:59:20.738Z,1011.65
2022-08-03T12:00:10.590Z,1011.60
2022-08-03T12:01:10.606Z,1011.73
2022-08-03T12:02:10.694Z,1011.78
2022-08-03T12:03:10.677Z,1011.84
2022-08-03T12:04:10.579Z,1011.88
2022-08-03T12:05:10.583Z,1012.01
2022-08-03T12:06:10.566Z,1012.16
2022-08-03T12:07:10.613Z,1012.39
2022-08-03T12:08:10.573Z,1012.43
2022-08-03T12:09:10.571Z,1012.20
2022-08-03T12:10:10.550Z,1012.00
2022-08-03T12:11:10.559Z,1011.88
2022-08-03T12:12:10.540Z,1011.78
2022-08-03T12:14:28.878Z,1011.69